createdAt,value
2017-10-26T00:00:16.460Z,0
2017-10-26T00:01:16.444Z,0
2017-10-26T00:02:16.112Z,0
2017-10-26T00:03:16.424Z,0
2017-10-26T00:04:16.097Z,0
2017-10-26T00:05:16.405Z,0
2017-10-26T00:06:16.090Z,0
2017-10-26T00:07:16.394Z,0
2017-10-26T00:08:16.389Z,0
2017-10-26T00:09:16.053Z,0
2017-10-26T00:10:16.373Z,0
2017-10-26T00:11:16.048Z,0
2017-10-26T00:12:16.360Z,0
2017-10-26T00:13:16.349Z,0
2017-10-26T00:14:16.020Z,0
2017-10-26T00:15:16.338Z,0
2017-10-26T00:16:16.342Z,0
2017-10-26T00:17:15.999Z,0
2017-10-26T00:18:16.304Z,0
2017-10-26T00:19:16.300Z,0
2017-10-26T00:20:16.299Z,0
2017-10-26T00:21:16.292Z,0
2017-10-26T00:22:16.527Z,0
2017-10-26T00:23:16.285Z,0
2017-10-26T00:24:16.266Z,0
2017-10-26T00:25:16.269Z,0
2017-10-26T00:26:16.245Z,0
2017-10-26T00:27:16.252Z,0
2017-10-26T00:28:15.913Z,0
2017-10-26T00:29:16.231Z,0
2017-10-26T00:30:15.892Z,0
2017-10-26T00:31:16.203Z,0
2017-10-26T00:32:16.203Z,0
2017-10-26T00:33:15.876Z,0
2017-10-26T00:34:16.193Z,0
2017-10-26T00:35:16.182Z,0
2017-10-26T00:36:16.171Z,0
2017-10-26T00:37:15.842Z,0
2017-10-26T00:38:16.155Z,0
2017-10-26T00:39:16.145Z,0
2017-10-26T00:40:16.155Z,0
2017-10-26T00:41:16.132Z,0
2017-10-26T00:42:16.124Z,0
2017-10-26T00:43:16.124Z,0
2017-10-26T00:44:16.126Z,0
2017-10-26T00:45:16.095Z,0
2017-10-26T00:46:16.087Z,0
2017-10-26T00:47:16.077Z,0
2017-10-26T00:48:16.076Z,0
2017-10-26T00:49:16.071Z,0
2017-10-26T00:50:15.729Z,0
2017-10-26T00:51:16.046Z,0
2017-10-26T00:52:16.038Z,0
2017-10-26T00:53:16.043Z,0
2017-10-26T00:54:15.951Z,0
2017-10-26T00:55:15.694Z,0
2017-10-26T00:56:16.009Z,0
2017-10-26T00:57:15.363Z,0
2017-10-26T00:58:15.991Z,0
2017-10-26T00:59:15.990Z,0
2017-10-26T01:00:15.975Z,0
2017-10-26T01:01:15.966Z,0
2017-10-26T01:02:15.955Z,0
2017-10-26T01:03:15.968Z,0
2017-10-26T01:04:15.947Z,0
2017-10-26T01:05:15.932Z,0
2017-10-26T01:06:15.931Z,0
2017-10-26T01:07:15.912Z,0
2017-10-26T01:08:15.918Z,0
2017-10-26T01:09:15.903Z,0
2017-10-26T01:10:15.569Z,0
2017-10-26T01:11:15.907Z,0
2017-10-26T01:12:15.883Z,0
2017-10-26T01:13:15.874Z,0
2017-10-26T01:14:15.540Z,0
2017-10-26T01:15:15.846Z,0
2017-10-26T01:16:15.841Z,0
2017-10-26T01:17:15.839Z,0
2017-10-26T01:18:15.834Z,0
2017-10-26T01:19:15.489Z,0
2017-10-26T01:20:15.809Z,0
2017-10-26T01:21:15.805Z,0
2017-10-26T01:22:15.470Z,0
2017-10-26T01:23:15.805Z,0
2017-10-26T01:24:15.780Z,0
2017-10-26T01:25:16.008Z,0
2017-10-26T01:26:15.759Z,0
2017-10-26T01:27:15.757Z,0
2017-10-26T01:28:15.785Z,0
2017-10-26T01:29:15.723Z,0
2017-10-26T01:30:15.398Z,0
2017-10-26T01:31:15.723Z,0
2017-10-26T01:32:15.382Z,0
2017-10-26T01:33:15.372Z,0
2017-10-26T01:34:15.355Z,0
2017-10-26T01:35:15.674Z,0
2017-10-26T01:36:15.353Z,0
2017-10-26T01:37:15.336Z,0
2017-10-26T01:38:15.328Z,0
2017-10-26T01:39:15.320Z,0
2017-10-26T01:40:15.316Z,0
2017-10-26T01:41:15.302Z,0
2017-10-26T01:42:14.642Z,0
2017-10-26T01:43:15.606Z,0
2017-10-26T01:44:15.599Z,0
2017-10-26T01:45:15.608Z,0
2017-10-26T01:46:15.581Z,0
2017-10-26T01:47:15.245Z,0
2017-10-26T01:48:14.912Z,0
2017-10-26T01:49:15.551Z,0
2017-10-26T01:50:15.239Z,0
2017-10-26T01:51:15.210Z,0
2017-10-26T01:52:15.539Z,0
2017-10-26T01:53:15.198Z,0
2017-10-26T01:54:15.510Z,0
2017-10-26T01:55:15.500Z,0
2017-10-26T01:56:15.749Z,0
2017-10-26T01:57:15.161Z,0
2017-10-26T01:58:15.154Z,0
2017-10-26T01:59:15.468Z,0
2017-10-26T02:00:15.460Z,0
2017-10-26T02:01:15.449Z,0
2017-10-26T02:02:15.161Z,0
2017-10-26T02:03:15.435Z,0
2017-10-26T02:04:15.436Z,0
2017-10-26T02:05:15.426Z,0
2017-10-26T02:06:15.432Z,0
2017-10-26T02:07:15.401Z,0
2017-10-26T02:08:15.383Z,0
2017-10-26T02:09:15.065Z,0
2017-10-26T02:10:15.380Z,0
2017-10-26T02:11:15.042Z,0
2017-10-26T02:12:15.039Z,0
2017-10-26T02:13:15.360Z,0
2017-10-26T02:14:15.333Z,0
2017-10-26T02:15:15.330Z,0
2017-10-26T02:16:14.671Z,0
2017-10-26T02:17:14.987Z,0
2017-10-26T02:18:14.981Z,0
2017-10-26T02:19:14.972Z,0
2017-10-26T02:20:15.288Z,0
2017-10-26T02:21:15.274Z,0
2017-10-26T02:22:15.269Z,0
2017-10-26T02:23:15.252Z,0
2017-10-26T02:24:15.266Z,0
2017-10-26T02:25:15.237Z,0
2017-10-26T02:26:15.232Z,0
2017-10-26T02:27:15.486Z,0
2017-10-26T02:28:14.898Z,0
2017-10-26T02:29:15.211Z,0
2017-10-26T02:30:14.877Z,0
2017-10-26T02:31:15.210Z,0
2017-10-26T02:32:15.488Z,0
2017-10-26T02:33:14.522Z,0
2017-10-26T02:34:14.559Z,0
2017-10-26T02:35:15.151Z,0
2017-10-26T02:36:14.852Z,0
2017-10-26T02:37:15.136Z,0
2017-10-26T02:38:15.140Z,0
2017-10-26T02:39:14.808Z,0
2017-10-26T02:40:14.789Z,0
2017-10-26T02:41:14.790Z,0
2017-10-26T02:42:14.771Z,0
2017-10-26T02:43:15.087Z,0
2017-10-26T02:44:14.751Z,0
2017-10-26T02:45:15.111Z,0
2017-10-26T02:46:14.735Z,0
2017-10-26T02:47:15.062Z,0
2017-10-26T02:48:15.045Z,0
2017-10-26T02:49:14.715Z,0
2017-10-26T02:50:14.706Z,0
2017-10-26T02:51:15.018Z,0
2017-10-26T02:52:15.032Z,0
2017-10-26T02:53:14.994Z,0
2017-10-26T02:54:14.999Z,0
2017-10-26T02:55:14.683Z,0
2017-10-26T02:56:14.670Z,0
2017-10-26T02:57:14.980Z,0
2017-10-26T02:58:15.234Z,0
2017-10-26T02:59:14.961Z,0
2017-10-26T03:00:14.620Z,0
2017-10-26T03:01:14.949Z,0
2017-10-26T03:02:14.929Z,0
2017-10-26T03:03:14.919Z,0
2017-10-26T03:04:14.913Z,0
2017-10-26T03:05:14.903Z,0
2017-10-26T03:06:14.572Z,0
2017-10-26T03:07:14.897Z,0
2017-10-26T03:08:14.892Z,0
2017-10-26T03:09:14.555Z,0
2017-10-26T03:10:14.546Z,0
2017-10-26T03:11:14.529Z,0
2017-10-26T03:12:14.844Z,0
2017-10-26T03:13:14.513Z,0
2017-10-26T03:14:14.517Z,0
2017-10-26T03:15:14.820Z,0
2017-10-26T03:16:14.827Z,0
2017-10-26T03:17:14.492Z,0
2017-10-26T03:18:14.475Z,0
2017-10-26T03:19:14.466Z,0
2017-10-26T03:20:13.817Z,0
2017-10-26T03:21:14.773Z,0
2017-10-26T03:22:14.774Z,0
2017-10-26T03:23:14.772Z,0
2017-10-26T03:24:14.438Z,0
2017-10-26T03:25:14.750Z,0
2017-10-26T03:26:14.747Z,0
2017-10-26T03:27:14.731Z,0
2017-10-26T03:28:14.399Z,0
2017-10-26T03:29:14.715Z,0
2017-10-26T03:30:14.972Z,0
2017-10-26T03:31:14.388Z,0
2017-10-26T03:32:14.707Z,0
2017-10-26T03:33:14.681Z,0
2017-10-26T03:34:14.363Z,0
2017-10-26T03:35:14.672Z,0
2017-10-26T03:36:14.348Z,0
2017-10-26T03:37:14.003Z,0
2017-10-26T03:38:14.642Z,0
2017-10-26T03:39:14.306Z,0
2017-10-26T03:40:14.329Z,0
2017-10-26T03:41:14.619Z,0
2017-10-26T03:42:14.313Z,0
2017-10-26T03:43:14.596Z,0
2017-10-26T03:44:14.609Z,0
2017-10-26T03:45:14.585Z,0
2017-10-26T03:46:14.259Z,0
2017-10-26T03:47:14.249Z,0
2017-10-26T03:48:14.239Z,0
2017-10-26T03:49:14.555Z,0
2017-10-26T03:50:14.225Z,0
2017-10-26T03:51:14.548Z,0
2017-10-26T03:52:14.207Z,0
2017-10-26T03:53:14.195Z,0
2017-10-26T03:54:14.189Z,0
2017-10-26T03:55:14.509Z,0
2017-10-26T03:56:13.849Z,0
2017-10-26T03:57:14.502Z,0
2017-10-26T03:58:13.509Z,0
2017-10-26T03:59:14.489Z,0
2017-10-26T04:00:14.464Z,0
2017-10-26T04:01:14.709Z,0
2017-10-26T04:02:14.445Z,0
2017-10-26T04:03:14.121Z,0
2017-10-26T04:04:14.121Z,0
2017-10-26T04:05:14.113Z,0
2017-10-26T04:06:14.430Z,0
2017-10-26T04:07:14.412Z,0
2017-10-26T04:08:14.397Z,0
2017-10-26T04:09:14.391Z,0
2017-10-26T04:10:14.390Z,0
2017-10-26T04:11:14.383Z,0
2017-10-26T04:12:14.367Z,0
2017-10-26T04:13:14.364Z,0
2017-10-26T04:14:14.354Z,0
2017-10-26T04:15:14.033Z,0
2017-10-26T04:16:14.008Z,0
2017-10-26T04:17:14.327Z,0
2017-10-26T04:18:14.326Z,0
2017-10-26T04:19:14.317Z,0
2017-10-26T04:20:14.301Z,0
2017-10-26T04:21:14.286Z,0
2017-10-26T04:22:13.650Z,0
2017-10-26T04:23:13.958Z,0
2017-10-26T04:24:13.944Z,0
2017-10-26T04:25:13.936Z,0
2017-10-26T04:26:13.604Z,0
2017-10-26T04:27:13.929Z,0
2017-10-26T04:28:14.231Z,0
2017-10-26T04:29:13.901Z,0
2017-10-26T04:30:14.219Z,0
2017-10-26T04:31:14.206Z,0
2017-10-26T04:32:14.457Z,0
2017-10-26T04:33:14.197Z,0
2017-10-26T04:34:13.862Z,0
2017-10-26T04:35:14.178Z,0
2017-10-26T04:36:13.531Z,0
2017-10-26T04:37:14.160Z,0
2017-10-26T04:38:14.151Z,0
2017-10-26T04:39:13.508Z,0
2017-10-26T04:40:13.810Z,0
2017-10-26T04:41:13.804Z,0
2017-10-26T04:42:13.797Z,0
2017-10-26T04:43:13.799Z,0
2017-10-26T04:44:13.780Z,0
2017-10-26T04:45:13.769Z,0
2017-10-26T04:46:13.768Z,0
2017-10-26T04:47:14.082Z,0
2017-10-26T04:48:14.081Z,0
2017-10-26T04:49:14.082Z,0
2017-10-26T04:50:14.091Z,0
2017-10-26T04:51:14.050Z,0
2017-10-26T04:52:14.040Z,0
2017-10-26T04:53:14.034Z,0
2017-10-26T04:54:13.376Z,0
2017-10-26T04:55:13.690Z,0
2017-10-26T04:56:13.694Z,0
2017-10-26T04:57:13.677Z,0
2017-10-26T04:58:13.986Z,0
2017-10-26T04:59:13.982Z,0
2017-10-26T05:00:13.985Z,0
2017-10-26T05:01:13.646Z,0
2017-10-26T05:02:13.635Z,0
2017-10-26T05:03:13.874Z,0
2017-10-26T05:04:13.946Z,0
2017-10-26T05:05:13.935Z,0
2017-10-26T05:06:13.280Z,0
2017-10-26T05:07:13.916Z,0
2017-10-26T05:08:13.581Z,0
2017-10-26T05:09:13.893Z,0
2017-10-26T05:10:13.922Z,0
2017-10-26T05:11:13.559Z,0
2017-10-26T05:12:13.875Z,0
2017-10-26T05:13:13.872Z,0
2017-10-26T05:14:13.864Z,0
2017-10-26T05:15:13.844Z,0
2017-10-26T05:16:13.204Z,0
2017-10-26T05:17:13.831Z,0
2017-10-26T05:18:13.510Z,0
2017-10-26T05:19:13.502Z,0
2017-10-26T05:20:13.160Z,0
2017-10-26T05:21:13.154Z,0
2017-10-26T05:22:13.471Z,0
2017-10-26T05:23:13.469Z,0
2017-10-26T05:24:13.774Z,0
2017-10-26T05:25:13.763Z,0
2017-10-26T05:26:13.448Z,0
2017-10-26T05:27:13.751Z,0
2017-10-26T05:28:13.418Z,0
2017-10-26T05:29:13.418Z,0
2017-10-26T05:30:13.735Z,0
2017-10-26T05:31:12.751Z,0
2017-10-26T05:32:13.712Z,0
2017-10-26T05:33:13.375Z,0
2017-10-26T05:34:13.297Z,0
2017-10-26T05:35:13.685Z,0
2017-10-26T05:36:13.697Z,0
2017-10-26T05:37:13.356Z,0
2017-10-26T05:38:13.343Z,0
2017-10-26T05:39:13.008Z,0
2017-10-26T05:40:13.644Z,0
2017-10-26T05:41:13.317Z,0
2017-10-26T05:42:13.628Z,0
2017-10-26T05:43:13.655Z,0
2017-10-26T05:44:13.612Z,0
2017-10-26T05:45:13.600Z,0
2017-10-26T05:46:13.274Z,0
2017-10-26T05:47:13.583Z,0
2017-10-26T05:48:13.255Z,5
2017-10-26T05:49:13.580Z,5
2017-10-26T05:50:13.575Z,5
2017-10-26T05:51:13.232Z,5
2017-10-26T05:52:13.547Z,5
2017-10-26T05:53:13.552Z,5
2017-10-26T05:54:13.523Z,5
2017-10-26T05:55:13.521Z,5
2017-10-26T05:56:13.511Z,5
2017-10-26T05:57:13.176Z,5
2017-10-26T05:58:13.506Z,10
2017-10-26T05:59:13.492Z,10
2017-10-26T06:00:13.169Z,10
2017-10-26T06:01:13.506Z,10
2017-10-26T06:02:13.140Z,10
2017-10-26T06:03:13.469Z,10
2017-10-26T06:04:13.450Z,15
2017-10-26T06:05:13.704Z,15
2017-10-26T06:06:13.110Z,15
2017-10-26T06:07:13.106Z,15
2017-10-26T06:08:12.765Z,15
2017-10-26T06:09:13.406Z,15
2017-10-26T06:10:13.080Z,20
2017-10-26T06:11:12.431Z,20
2017-10-26T06:12:13.387Z,25
2017-10-26T06:13:13.372Z,25
2017-10-26T06:14:13.359Z,30
2017-10-26T06:15:13.075Z,35
2017-10-26T06:16:13.040Z,40
2017-10-26T06:17:13.021Z,40
2017-10-26T06:18:13.013Z,45
2017-10-26T06:19:13.325Z,45
2017-10-26T06:20:12.999Z,45
2017-10-26T06:21:12.983Z,45
2017-10-26T06:22:12.986Z,45
2017-10-26T06:23:12.976Z,45
2017-10-26T06:24:13.292Z,50
2017-10-26T06:25:13.280Z,50
2017-10-26T06:26:12.953Z,50
2017-10-26T06:27:12.945Z,50
2017-10-26T06:28:13.253Z,50
2017-10-26T06:29:12.925Z,50
2017-10-26T06:30:12.914Z,50
2017-10-26T06:31:13.231Z,45
2017-10-26T06:32:13.226Z,50
2017-10-26T06:33:13.215Z,50
2017-10-26T06:34:12.561Z,55
2017-10-26T06:35:13.233Z,55
2017-10-26T06:36:13.119Z,55
2017-10-26T06:37:13.187Z,60
2017-10-26T06:38:12.861Z,60
2017-10-26T06:39:13.167Z,65
2017-10-26T06:40:12.844Z,60
2017-10-26T06:41:12.834Z,65
2017-10-26T06:42:12.829Z,65
2017-10-26T06:43:13.143Z,70
2017-10-26T06:44:12.808Z,75
2017-10-26T06:45:13.124Z,75
2017-10-26T06:46:12.795Z,75
2017-10-26T06:47:13.106Z,80
2017-10-26T06:48:13.100Z,85
2017-10-26T06:49:13.096Z,75
2017-10-26T06:50:13.082Z,65
2017-10-26T06:51:12.430Z,60
2017-10-26T06:52:12.740Z,60
2017-10-26T06:53:13.065Z,60
2017-10-26T06:54:12.415Z,55
2017-10-26T06:55:13.046Z,55
2017-10-26T06:56:12.719Z,55
2017-10-26T06:57:12.710Z,55
2017-10-26T06:58:13.024Z,65
2017-10-26T06:59:13.021Z,70
2017-10-26T07:00:12.701Z,80
2017-10-26T07:01:12.360Z,85
2017-10-26T07:02:12.673Z,85
2017-10-26T07:03:13.000Z,90
2017-10-26T07:04:12.987Z,90
2017-10-26T07:05:12.327Z,90
2017-10-26T07:06:12.659Z,95
2017-10-26T07:07:12.631Z,95
2017-10-26T07:08:12.875Z,95
2017-10-26T07:09:12.941Z,100
2017-10-26T07:10:12.616Z,100
2017-10-26T07:11:12.609Z,110
2017-10-26T07:12:12.595Z,115
2017-10-26T07:13:12.913Z,125
2017-10-26T07:14:12.901Z,140
2017-10-26T07:15:12.904Z,160
2017-10-26T07:16:12.245Z,180
2017-10-26T07:17:12.578Z,205
2017-10-26T07:18:12.883Z,220
2017-10-26T07:19:12.873Z,225
2017-10-26T07:20:12.869Z,215
2017-10-26T07:21:12.214Z,210
2017-10-26T07:22:12.200Z,210
2017-10-26T07:23:12.522Z,205
2017-10-26T07:24:12.513Z,200
2017-10-26T07:25:12.514Z,190
2017-10-26T07:26:12.817Z,180
2017-10-26T07:27:12.811Z,180
2017-10-26T07:28:12.172Z,185
2017-10-26T07:29:12.802Z,195
2017-10-26T07:30:12.806Z,205
2017-10-26T07:31:12.142Z,220
2017-10-26T07:32:12.467Z,230
2017-10-26T07:33:12.455Z,235
2017-10-26T07:34:12.771Z,235
2017-10-26T07:35:12.762Z,240
2017-10-26T07:36:12.436Z,245
2017-10-26T07:37:12.744Z,250
2017-10-26T07:38:12.448Z,255
2017-10-26T07:39:12.992Z,255
2017-10-26T07:40:12.737Z,250
2017-10-26T07:41:12.398Z,240
2017-10-26T07:42:12.401Z,230
2017-10-26T07:43:12.394Z,215
2017-10-26T07:44:12.744Z,210
2017-10-26T07:45:12.402Z,210
2017-10-26T07:46:12.702Z,220
2017-10-26T07:47:12.694Z,230
2017-10-26T07:48:12.696Z,235
2017-10-26T07:49:12.353Z,250
2017-10-26T07:50:12.883Z,255
2017-10-26T07:51:12.344Z,255
2017-10-26T07:52:12.680Z,255
2017-10-26T07:53:12.652Z,265
2017-10-26T07:54:12.656Z,270
2017-10-26T07:55:12.643Z,280
2017-10-26T07:56:11.991Z,285
2017-10-26T07:57:12.309Z,275
2017-10-26T07:58:12.305Z,265
2017-10-26T07:59:12.313Z,250
2017-10-26T08:00:12.507Z,230
2017-10-26T08:01:12.290Z,220
2017-10-26T08:02:12.297Z,215
2017-10-26T08:03:12.605Z,215
2017-10-26T08:04:12.599Z,220
2017-10-26T08:05:11.942Z,230
2017-10-26T08:06:12.460Z,245
2017-10-26T08:07:12.257Z,255
2017-10-26T08:08:12.296Z,260
2017-10-26T08:09:12.911Z,270
2017-10-26T08:10:12.505Z,270
2017-10-26T08:11:11.915Z,275
2017-10-26T08:12:12.557Z,270
2017-10-26T08:13:12.223Z,270
2017-10-26T08:14:12.550Z,290
2017-10-26T08:15:11.898Z,315
2017-10-26T08:16:11.894Z,330
2017-10-26T08:17:12.538Z,330
2017-10-26T08:18:12.213Z,315
2017-10-26T08:19:12.231Z,295
2017-10-26T08:20:12.193Z,270
2017-10-26T08:21:11.877Z,260
2017-10-26T08:22:12.191Z,245
2017-10-26T08:23:12.193Z,235
2017-10-26T08:24:12.192Z,235
2017-10-26T08:25:11.523Z,245
2017-10-26T08:26:11.840Z,250
2017-10-26T08:27:12.172Z,255
2017-10-26T08:28:12.155Z,265
2017-10-26T08:29:12.148Z,265
2017-10-26T08:30:11.824Z,265
2017-10-26T08:31:12.145Z,270
2017-10-26T08:32:12.131Z,275
2017-10-26T08:33:12.458Z,275
2017-10-26T08:34:12.456Z,270
2017-10-26T08:35:12.121Z,255
2017-10-26T08:36:12.447Z,240
2017-10-26T08:37:11.787Z,245
2017-10-26T08:38:12.100Z,265
2017-10-26T08:39:12.427Z,280
2017-10-26T08:40:12.104Z,295
2017-10-26T08:41:12.350Z,300
2017-10-26T08:42:11.764Z,305
2017-10-26T08:43:12.086Z,305
2017-10-26T08:44:12.078Z,300
2017-10-26T08:45:12.074Z,305
2017-10-26T08:46:12.399Z,310
2017-10-26T08:47:12.397Z,320
2017-10-26T08:48:12.065Z,325
2017-10-26T08:49:12.055Z,325
2017-10-26T08:50:12.054Z,330
2017-10-26T08:51:11.721Z,335
2017-10-26T08:52:12.362Z,345
2017-10-26T08:53:12.352Z,355
2017-10-26T08:54:12.358Z,355
2017-10-26T08:55:12.362Z,345
2017-10-26T08:56:12.381Z,335
2017-10-26T08:57:11.696Z,330
2017-10-26T08:58:12.360Z,330
2017-10-26T08:59:12.011Z,335
2017-10-26T09:00:11.686Z,335
2017-10-26T09:01:12.006Z,330
2017-10-26T09:02:12.320Z,330
2017-10-26T09:03:12.318Z,325
2017-10-26T09:04:11.996Z,325
2017-10-26T09:05:12.309Z,330
2017-10-26T09:06:11.991Z,335
2017-10-26T09:07:12.309Z,340
2017-10-26T09:08:11.978Z,340
2017-10-26T09:09:11.983Z,340
2017-10-26T09:10:11.971Z,340
2017-10-26T09:11:12.574Z,340
2017-10-26T09:12:12.316Z,335
2017-10-26T09:13:11.961Z,330
2017-10-26T09:14:12.272Z,325
2017-10-26T09:15:12.268Z,330
2017-10-26T09:16:11.619Z,345
2017-10-26T09:17:12.260Z,360
2017-10-26T09:18:12.265Z,380
2017-10-26T09:19:11.609Z,390
2017-10-26T09:20:11.933Z,385
2017-10-26T09:21:11.606Z,380
2017-10-26T09:22:11.922Z,380
2017-10-26T09:23:11.923Z,385
2017-10-26T09:24:11.908Z,375
2017-10-26T09:25:11.925Z,365
2017-10-26T09:26:12.224Z,350
2017-10-26T09:27:11.895Z,340
2017-10-26T09:28:11.569Z,345
2017-10-26T09:29:12.216Z,355
2017-10-26T09:30:12.221Z,370
2017-10-26T09:31:12.210Z,375
2017-10-26T09:32:12.616Z,370
2017-10-26T09:33:11.877Z,380
2017-10-26T09:34:11.875Z,380
2017-10-26T09:35:12.201Z,375
2017-10-26T09:36:12.201Z,380
2017-10-26T09:37:12.203Z,360
2017-10-26T09:38:11.214Z,350
2017-10-26T09:39:12.461Z,340
2017-10-26T09:40:12.185Z,335
2017-10-26T09:41:12.172Z,330
2017-10-26T09:42:11.853Z,335
2017-10-26T09:43:12.416Z,335
2017-10-26T09:44:11.844Z,330
2017-10-26T09:45:11.863Z,340
2017-10-26T09:46:12.172Z,370
2017-10-26T09:47:12.162Z,410
2017-10-26T09:48:12.077Z,420
2017-10-26T09:49:11.825Z,435
2017-10-26T09:50:12.159Z,440
2017-10-26T09:51:12.150Z,440
2017-10-26T09:52:12.146Z,435
2017-10-26T09:53:12.110Z,420
2017-10-26T09:54:12.136Z,405
2017-10-26T09:55:12.013Z,390
2017-10-26T09:56:11.474Z,380
2017-10-26T09:57:12.118Z,370
2017-10-26T09:58:11.799Z,345
2017-10-26T09:59:11.791Z,340
2017-10-26T10:00:11.787Z,330
2017-10-26T10:01:12.113Z,320
2017-10-26T10:02:12.100Z,320
2017-10-26T10:03:13.360Z,320
2017-10-26T10:04:25.643Z,320
2017-10-26T10:05:12.130Z,315
2017-10-26T10:06:13.509Z,295
2017-10-26T10:07:13.302Z,300
2017-10-26T10:08:12.094Z,305
2017-10-26T10:09:11.759Z,310
2017-10-26T10:10:12.074Z,310
2017-10-26T10:11:12.072Z,315
2017-10-26T10:12:12.073Z,320
2017-10-26T10:13:12.072Z,315
2017-10-26T10:14:12.314Z,325
2017-10-26T10:15:12.084Z,340
2017-10-26T10:16:12.066Z,350
2017-10-26T10:17:11.740Z,350
2017-10-26T10:18:11.732Z,350
2017-10-26T10:19:12.063Z,355
2017-10-26T10:20:11.399Z,350
2017-10-26T10:21:11.395Z,355
2017-10-26T10:22:12.045Z,355
2017-10-26T10:23:12.038Z,360
2017-10-26T10:24:12.038Z,365
2017-10-26T10:25:11.419Z,380
2017-10-26T10:26:11.385Z,390
2017-10-26T10:27:12.025Z,400
2017-10-26T10:28:12.025Z,410
2017-10-26T10:29:12.015Z,405
2017-10-26T10:30:12.035Z,405
2017-10-26T10:31:11.699Z,405
2017-10-26T10:32:11.676Z,400
2017-10-26T10:33:12.011Z,400
2017-10-26T10:34:11.675Z,400
2017-10-26T10:35:11.670Z,395
2017-10-26T10:36:11.358Z,395
2017-10-26T10:37:11.997Z,395
2017-10-26T10:38:11.995Z,395
2017-10-26T10:39:11.976Z,400
2017-10-26T10:40:11.333Z,410
2017-10-26T10:41:11.653Z,400
2017-10-26T10:42:11.647Z,395
2017-10-26T10:43:11.655Z,395
2017-10-26T10:44:11.644Z,395
2017-10-26T10:45:11.967Z,395
2017-10-26T10:46:11.972Z,385
2017-10-26T10:47:11.644Z,375
2017-10-26T10:48:11.959Z,370
2017-10-26T10:49:11.958Z,365
2017-10-26T10:50:11.626Z,360
2017-10-26T10:51:12.352Z,360
2017-10-26T10:52:12.145Z,355
2017-10-26T10:53:12.346Z,305
2017-10-26T10:54:11.622Z,255
2017-10-26T10:55:12.189Z,290
2017-10-26T10:56:12.130Z,275
2017-10-26T10:57:12.233Z,260
2017-10-26T10:58:11.601Z,320
2017-10-26T10:59:11.279Z,330
2017-10-26T11:00:11.921Z,325
2017-10-26T11:01:11.851Z,285
2017-10-26T11:02:11.941Z,215
2017-10-26T11:03:11.594Z,205
2017-10-26T11:04:11.904Z,240
2017-10-26T11:05:11.587Z,240
2017-10-26T11:06:11.511Z,245
2017-10-26T11:07:11.907Z,255
2017-10-26T11:08:11.931Z,250
2017-10-26T11:09:11.896Z,265
2017-10-26T11:10:11.251Z,260
2017-10-26T11:11:12.107Z,250
2017-10-26T11:12:12.978Z,245
2017-10-26T11:13:15.205Z,200
2017-10-26T11:14:15.594Z,200
2017-10-26T11:15:12.680Z,205
2017-10-26T11:16:19.748Z,210
2017-10-26T11:17:33.459Z,230
2017-10-26T11:18:12.673Z,220
2017-10-26T11:19:13.482Z,230
2017-10-26T11:20:12.682Z,250
2017-10-26T11:21:16.936Z,250
2017-10-26T11:22:26.335Z,240
2017-10-26T11:23:14.478Z,240
2017-10-26T11:24:37.887Z,245
2017-10-26T11:25:24.263Z,255
2017-10-26T11:26:31.254Z,260
2017-10-26T11:27:25.659Z,250
2017-10-26T11:28:23.050Z,235
2017-10-26T11:29:43.813Z,230
2017-10-26T11:30:18.707Z,205
2017-10-26T11:31:13.118Z,160
2017-10-26T11:32:13.320Z,130
2017-10-26T11:33:18.047Z,155
2017-10-26T11:34:11.903Z,180
2017-10-26T11:35:14.111Z,170
2017-10-26T11:36:46.017Z,220
2017-10-26T11:37:25.638Z,245
2017-10-26T11:38:26.961Z,280
2017-10-26T11:39:13.408Z,310
2017-10-26T11:40:31.605Z,295
2017-10-26T11:41:11.553Z,260
2017-10-26T11:42:25.131Z,265
2017-10-26T11:43:11.866Z,275
2017-10-26T11:44:14.052Z,300
2017-10-26T11:45:11.989Z,320
2017-10-26T11:46:25.603Z,305
2017-10-26T11:47:15.408Z,300
2017-10-26T11:48:37.655Z,280
2017-10-26T11:49:12.570Z,250
2017-10-26T11:50:14.801Z,215
2017-10-26T11:51:18.192Z,185
2017-10-26T11:52:13.250Z,165
2017-10-26T11:53:14.801Z,150
2017-10-26T11:54:15.437Z,150
2017-10-26T11:55:15.184Z,155
2017-10-26T11:56:13.160Z,135
2017-10-26T11:57:20.024Z,140
2017-10-26T11:58:24.876Z,190
2017-10-26T11:59:15.738Z,200
2017-10-26T12:00:11.486Z,200
2017-10-26T12:01:20.902Z,180
2017-10-26T12:02:11.403Z,180
2017-10-26T12:03:12.321Z,200
2017-10-26T12:04:14.259Z,200
2017-10-26T12:05:11.920Z,220
2017-10-26T12:06:11.792Z,230
2017-10-26T12:07:15.574Z,240
2017-10-26T12:08:11.368Z,250
2017-10-26T12:09:17.405Z,265
2017-10-26T12:10:11.896Z,270
2017-10-26T12:11:11.893Z,270
2017-10-26T12:12:12.906Z,265
2017-10-26T12:13:13.100Z,255
2017-10-26T12:14:20.576Z,245
2017-10-26T12:15:24.412Z,245
2017-10-26T12:16:11.838Z,240
2017-10-26T12:17:12.884Z,225
2017-10-26T12:18:13.487Z,195
2017-10-26T12:19:18.336Z,205
2017-10-26T12:20:16.184Z,230
2017-10-26T12:21:11.869Z,260
2017-10-26T12:22:13.267Z,295
2017-10-26T12:23:11.648Z,315
2017-10-26T12:24:12.938Z,315
2017-10-26T12:25:11.851Z,305
2017-10-26T12:26:11.519Z,300
2017-10-26T12:27:11.507Z,290
2017-10-26T12:28:11.715Z,285
2017-10-26T12:29:12.833Z,285
2017-10-26T12:30:12.080Z,285
2017-10-26T12:31:11.301Z,285
2017-10-26T12:32:11.621Z,285
2017-10-26T12:33:10.981Z,285
2017-10-26T12:34:10.646Z,280
2017-10-26T12:35:11.533Z,275
2017-10-26T12:36:11.615Z,270
2017-10-26T12:37:11.595Z,265
2017-10-26T12:38:11.276Z,265
2017-10-26T12:39:10.957Z,265
2017-10-26T12:40:11.612Z,265
2017-10-26T12:41:10.940Z,275
2017-10-26T12:42:11.255Z,280
2017-10-26T12:43:11.580Z,275
2017-10-26T12:44:11.577Z,260
2017-10-26T12:45:11.599Z,245
2017-10-26T12:46:10.923Z,235
2017-10-26T12:47:11.569Z,225
2017-10-26T12:48:11.249Z,225
2017-10-26T12:49:11.445Z,225
2017-10-26T12:50:11.563Z,225
2017-10-26T12:51:11.485Z,225
2017-10-26T12:52:11.227Z,230
2017-10-26T12:53:11.228Z,225
2017-10-26T12:54:11.914Z,225
2017-10-26T12:55:11.556Z,220
2017-10-26T12:56:11.784Z,210
2017-10-26T12:57:11.212Z,200
2017-10-26T12:58:11.540Z,195
2017-10-26T12:59:11.206Z,195
2017-10-26T13:00:11.526Z,200
2017-10-26T13:01:10.879Z,215
2017-10-26T13:02:11.196Z,235
2017-10-26T13:03:11.515Z,240
2017-10-26T13:04:10.864Z,225
2017-10-26T13:05:11.514Z,205
2017-10-26T13:06:11.511Z,210
2017-10-26T13:07:11.501Z,220
2017-10-26T13:08:11.177Z,230
2017-10-26T13:09:11.495Z,230
2017-10-26T13:10:11.500Z,230
2017-10-26T13:11:11.164Z,225
2017-10-26T13:12:11.497Z,215
2017-10-26T13:13:11.481Z,210
2017-10-26T13:14:11.367Z,200
2017-10-26T13:15:11.470Z,195
2017-10-26T13:16:11.480Z,190
2017-10-26T13:17:11.144Z,190
2017-10-26T13:18:11.467Z,185
2017-10-26T13:19:11.466Z,180
2017-10-26T13:20:10.489Z,180
2017-10-26T13:21:11.151Z,185
2017-10-26T13:22:11.700Z,180
2017-10-26T13:23:11.446Z,180
2017-10-26T13:24:11.441Z,180
2017-10-26T13:25:11.444Z,180
2017-10-26T13:26:11.126Z,180
2017-10-26T13:27:10.804Z,190
2017-10-26T13:28:10.784Z,200
2017-10-26T13:29:11.425Z,200
2017-10-26T13:30:11.423Z,200
2017-10-26T13:31:10.772Z,205
2017-10-26T13:32:11.421Z,205
2017-10-26T13:33:11.412Z,210
2017-10-26T13:34:10.962Z,215
2017-10-26T13:35:11.404Z,205
2017-10-26T13:36:11.084Z,200
2017-10-26T13:37:11.099Z,200
2017-10-26T13:38:11.067Z,200
2017-10-26T13:39:11.073Z,195
2017-10-26T13:40:10.742Z,190
2017-10-26T13:41:11.060Z,190
2017-10-26T13:42:11.052Z,185
2017-10-26T13:43:11.371Z,185
2017-10-26T13:44:11.076Z,185
2017-10-26T13:45:11.373Z,185
2017-10-26T13:46:11.044Z,190
2017-10-26T13:47:11.043Z,190
2017-10-26T13:48:11.365Z,190
2017-10-26T13:49:11.029Z,190
2017-10-26T13:50:11.370Z,190
2017-10-26T13:51:11.345Z,190
2017-10-26T13:52:11.020Z,185
2017-10-26T13:53:11.603Z,185
2017-10-26T13:54:10.685Z,185
2017-10-26T13:55:11.328Z,185
2017-10-26T13:56:10.690Z,185
2017-10-26T13:57:11.001Z,185
2017-10-26T13:58:10.996Z,185
2017-10-26T13:59:11.314Z,185
2017-10-26T14:00:11.007Z,180
2017-10-26T14:01:10.987Z,175
2017-10-26T14:02:11.312Z,175
2017-10-26T14:03:10.992Z,170
2017-10-26T14:04:10.983Z,170
2017-10-26T14:05:10.985Z,155
2017-10-26T14:06:10.646Z,150
2017-10-26T14:07:11.287Z,145
2017-10-26T14:08:10.958Z,140
2017-10-26T14:09:11.255Z,140
2017-10-26T14:10:11.278Z,140
2017-10-26T14:11:11.294Z,135
2017-10-26T14:12:11.271Z,130
2017-10-26T14:13:11.277Z,125